sensor_id;sensor_type;location;lat;lon;timestamp;P1;durP1;ratioP1;P2;durP2;ratioP2
40871;SDS011;26591;43.264;26.940;2023-05-27T00:00:05;6.25;;;3.92;;
40871;SDS011;26591;43.264;26.940;2023-05-27T00:02:33;5.95;;;4.15;;
40871;SDS011;26591;43.264;26.940;2023-05-27T00:04:58;11.52;;;4.10;;
40871;SDS011;26591;43.264;26.940;2023-05-27T00:07:24;6.35;;;4.10;;
40871;SDS011;26591;43.264;26.940;2023-05-27T00:09:50;7.47;;;5.22;;
40871;SDS011;26591;43.264;26.940;2023-05-27T00:12:16;7.75;;;3.90;;
40871;SDS011;26591;43.264;26.940;2023-05-27T00:14:41;6.63;;;3.92;;
40871;SDS011;26591;43.264;26.940;2023-05-27T00:17:07;6.68;;;4.25;;
40871;SDS011;26591;43.264;26.940;2023-05-27T00:19:42;10.65;;;5.45;;
40871;SDS011;26591;43.264;26.940;2023-05-27T00:22:10;6.57;;;4.10;;
40871;SDS011;26591;43.264;26.940;2023-05-27T00:24:36;11.63;;;5.18;;
40871;SDS011;26591;43.264;26.940;2023-05-27T00:27:04;5.30;;;3.30;;
40871;SDS011;26591;43.264;26.940;2023-05-27T00:29:30;4.88;;;3.65;;
40871;SDS011;26591;43.264;26.940;2023-05-27T00:31:56;7.00;;;3.67;;
40871;SDS011;26591;43.264;26.940;2023-05-27T00:34:21;6.05;;;3.40;;
40871;SDS011;26591;43.264;26.940;2023-05-27T00:36:47;4.60;;;3.10;;
40871;SDS011;26591;43.264;26.940;2023-05-27T00:39:12;5.78;;;3.30;;
40871;SDS011;26591;43.264;26.940;2023-05-27T00:41:39;4.78;;;3.22;;
40871;SDS011;26591;43.264;26.940;2023-05-27T00:44:08;6.07;;;3.17;;
40871;SDS011;26591;43.264;26.940;2023-05-27T00:46:33;7.47;;;2.95;;
40871;SDS011;26591;43.264;26.940;2023-05-27T00:48:59;4.10;;;2.67;;
40871;SDS011;26591;43.264;26.940;2023-05-27T00:51:24;7.57;;;3.58;;
40871;SDS011;26591;43.264;26.940;2023-05-27T00:53:50;6.75;;;3.00;;
40871;SDS011;26591;43.264;26.940;2023-05-27T00:56:15;4.57;;;3.08;;
40871;SDS011;26591;43.264;26.940;2023-05-27T00:58:42;4.53;;;3.35;;
40871;SDS011;26591;43.264;26.940;2023-05-27T01:01:07;4.43;;;3.10;;
40871;SDS011;26591;43.264;26.940;2023-05-27T01:03:34;3.40;;;2.65;;
40871;SDS011;26591;43.264;26.940;2023-05-27T01:06:10;4.90;;;2.88;;
40871;SDS011;26591;43.264;26.940;2023-05-27T01:08:59;7.25;;;2.90;;
40871;SDS011;26591;43.264;26.940;2023-05-27T01:11:38;8.80;;;2.88;;
40871;SDS011;26591;43.264;26.940;2023-05-27T01:14:09;5.35;;;2.85;;
40871;SDS011;26591;43.264;26.940;2023-05-27T01:16:37;8.25;;;3.42;;
40871;SDS011;26591;43.264;26.940;2023-05-27T01:19:13;5.40;;;3.05;;
40871;SDS011;26591;43.264;26.940;2023-05-27T01:21:45;6.43;;;3.03;;
40871;SDS011;26591;43.264;26.940;2023-05-27T01:24:13;5.45;;;3.22;;
40871;SDS011;26591;43.264;26.940;2023-05-27T01:26:39;6.78;;;4.10;;
40871;SDS011;26591;43.264;26.940;2023-05-27T01:29:05;5.80;;;3.35;;
40871;SDS011;26591;43.264;26.940;2023-05-27T01:31:33;7.82;;;3.60;;
40871;SDS011;26591;43.264;26.940;2023-05-27T01:34:11;5.43;;;3.45;;
40871;SDS011;26591;43.264;26.940;2023-05-27T01:36:47;5.47;;;3.75;;
40871;SDS011;26591;43.264;26.940;2023-05-27T01:39:16;8.40;;;4.32;;
40871;SDS011;26591;43.264;26.940;2023-05-27T01:41:42;8.98;;;4.10;;
40871;SDS011;26591;43.264;26.940;2023-05-27T01:44:08;4.82;;;4.25;;
40871;SDS011;26591;43.264;26.940;2023-05-27T01:46:35;5.57;;;4.10;;
40871;SDS011;26591;43.264;26.940;2023-05-27T01:49:01;4.30;;;3.90;;
40871;SDS011;26591;43.264;26.940;2023-05-27T01:51:28;5.85;;;4.45;;
40871;SDS011;26591;43.264;26.940;2023-05-27T01:53:53;8.98;;;4.47;;
40871;SDS011;26591;43.264;26.940;2023-05-27T01:56:19;8.45;;;4.60;;
40871;SDS011;26591;43.264;26.940;2023-05-27T01:58:44;5.47;;;4.63;;
40871;SDS011;26591;43.264;26.940;2023-05-27T02:01:10;6.70;;;4.50;;
40871;SDS011;26591;43.264;26.940;2023-05-27T02:03:35;7.53;;;4.78;;
40871;SDS011;26591;43.264;26.940;2023-05-27T02:06:01;5.32;;;4.47;;
40871;SDS011;26591;43.264;26.940;2023-05-27T02:08:26;6.00;;;4.25;;
40871;SDS011;26591;43.264;26.940;2023-05-27T02:10:52;7.00;;;4.78;;
40871;SDS011;26591;43.264;26.940;2023-05-27T02:13:18;9.43;;;5.35;;
40871;SDS011;26591;43.264;26.940;2023-05-27T02:15:43;7.38;;;5.10;;
40871;SDS011;26591;43.264;26.940;2023-05-27T02:18:09;9.10;;;5.05;;
40871;SDS011;26591;43.264;26.940;2023-05-27T02:20:35;10.38;;;5.38;;
40871;SDS011;26591;43.264;26.940;2023-05-27T02:23:00;7.95;;;5.20;;
40871;SDS011;26591;43.264;26.940;2023-05-27T02:25:29;7.18;;;4.95;;
40871;SDS011;26591;43.264;26.940;2023-05-27T02:27:54;10.13;;;5.10;;
40871;SDS011;26591;43.264;26.940;2023-05-27T02:30:20;10.43;;;5.63;;
40871;SDS011;26591;43.264;26.940;2023-05-27T02:32:45;15.10;;;5.47;;
40871;SDS011;26591;43.264;26.940;2023-05-27T02:35:12;9.60;;;5.30;;
40871;SDS011;26591;43.264;26.940;2023-05-27T02:37:39;11.38;;;5.20;;
40871;SDS011;26591;43.264;26.940;2023-05-27T02:40:05;8.88;;;5.40;;
40871;SDS011;26591;43.264;26.940;2023-05-27T02:42:33;10.75;;;5.45;;
40871;SDS011;26591;43.264;26.940;2023-05-27T02:44:59;8.52;;;5.85;;
40871;SDS011;26591;43.264;26.940;2023-05-27T02:47:24;10.68;;;5.80;;
40871;SDS011;26591;43.264;26.940;2023-05-27T02:49:50;9.80;;;5.18;;
40871;SDS011;26591;43.264;26.940;2023-05-27T02:52:15;11.52;;;5.47;;
40871;SDS011;26591;43.264;26.940;2023-05-27T02:54:41;10.13;;;5.60;;
40871;SDS011;26591;43.264;26.940;2023-05-27T02:57:06;10.45;;;5.97;;
40871;SDS011;26591;43.264;26.940;2023-05-27T02:59:32;8.27;;;5.57;;
40871;SDS011;26591;43.264;26.940;2023-05-27T03:01:58;10.18;;;5.88;;
40871;SDS011;26591;43.264;26.940;2023-05-27T03:04:23;10.43;;;6.28;;
40871;SDS011;26591;43.264;26.940;2023-05-27T03:06:48;13.15;;;6.45;;
40871;SDS011;26591;43.264;26.940;2023-05-27T03:09:14;10.77;;;5.53;;
40871;SDS011;26591;43.264;26.940;2023-05-27T03:11:42;9.30;;;5.30;;
40871;SDS011;26591;43.264;26.940;2023-05-27T03:14:08;7.10;;;5.32;;
40871;SDS011;26591;43.264;26.940;2023-05-27T03:16:33;16.08;;;7.15;;
40871;SDS011;26591;43.264;26.940;2023-05-27T03:18:59;8.63;;;5.53;;
40871;SDS011;26591;43.264;26.940;2023-05-27T03:21:26;8.65;;;5.07;;
40871;SDS011;26591;43.264;26.940;2023-05-27T03:23:51;9.52;;;5.50;;
40871;SDS011;26591;43.264;26.940;2023-05-27T03:26:17;8.95;;;5.50;;
40871;SDS011;26591;43.264;26.940;2023-05-27T03:28:42;13.75;;;5.40;;
40871;SDS011;26591;43.264;26.940;2023-05-27T03:31:10;9.02;;;6.35;;
40871;SDS011;26591;43.264;26.940;2023-05-27T03:33:37;7.45;;;5.18;;
40871;SDS011;26591;43.264;26.940;2023-05-27T03:36:03;6.75;;;5.22;;
40871;SDS011;26591;43.264;26.940;2023-05-27T03:38:29;14.48;;;5.35;;
40871;SDS011;26591;43.264;26.940;2023-05-27T03:40:54;8.43;;;5.28;;
40871;SDS011;26591;43.264;26.940;2023-05-27T03:43:20;6.22;;;5.20;;
40871;SDS011;26591;43.264;26.940;2023-05-27T03:45:47;6.57;;;5.25;;
40871;SDS011;26591;43.264;26.940;2023-05-27T03:48:13;11.40;;;5.57;;
40871;SDS011;26591;43.264;26.940;2023-05-27T03:50:38;9.43;;;5.18;;
40871;SDS011;26591;43.264;26.940;2023-05-27T03:53:04;15.48;;;6.95;;
40871;SDS011;26591;43.264;26.940;2023-05-27T03:55:29;9.90;;;6.22;;
40871;SDS011;26591;43.264;26.940;2023-05-27T03:57:55;11.40;;;6.60;;
40871;SDS011;26591;43.264;26.940;2023-05-27T04:00:20;10.55;;;6.75;;
40871;SDS011;26591;43.264;26.940;2023-05-27T04:02:46;10.30;;;7.13;;
40871;SDS011;26591;43.264;26.940;2023-05-27T04:05:12;10.23;;;7.15;;
40871;SDS011;26591;43.264;26.940;2023-05-27T04:07:37;10.05;;;6.60;;
40871;SDS011;26591;43.264;26.940;2023-05-27T04:10:03;12.90;;;6.15;;
40871;SDS011;26591;43.264;26.940;2023-05-27T04:12:30;9.02;;;6.15;;
40871;SDS011;26591;43.264;26.940;2023-05-27T04:14:55;8.80;;;6.57;;
40871;SDS011;26591;43.264;26.940;2023-05-27T04:17:21;8.80;;;5.65;;
40871;SDS011;26591;43.264;26.940;2023-05-27T04:19:47;11.90;;;6.00;;
40871;SDS011;26591;43.264;26.940;2023-05-27T04:22:14;8.35;;;5.30;;
40871;SDS011;26591;43.264;26.940;2023-05-27T04:24:39;9.43;;;5.00;;
40871;SDS011;26591;43.264;26.940;2023-05-27T04:27:06;15.55;;;6.10;;
40871;SDS011;26591;43.264;26.940;2023-05-27T04:29:32;9.73;;;5.60;;
40871;SDS011;26591;43.264;26.940;2023-05-27T04:31:58;9.73;;;5.20;;
40871;SDS011;26591;43.264;26.940;2023-05-27T04:34:24;6.47;;;4.47;;
40871;SDS011;26591;43.264;26.940;2023-05-27T04:36:49;10.70;;;5.05;;
40871;SDS011;26591;43.264;26.940;2023-05-27T04:39:16;6.63;;;4.95;;
40871;SDS011;26591;43.264;26.940;2023-05-27T04:41:42;9.35;;;4.88;;
40871;SDS011;26591;43.264;26.940;2023-05-27T04:44:08;6.00;;;4.57;;
40871;SDS011;26591;43.264;26.940;2023-05-27T04:46:33;12.18;;;5.18;;
40871;SDS011;26591;43.264;26.940;2023-05-27T04:48:59;6.10;;;4.45;;
40871;SDS011;26591;43.264;26.940;2023-05-27T04:51:25;9.93;;;5.05;;
40871;SDS011;26591;43.264;26.940;2023-05-27T04:53:51;4.85;;;4.22;;
40871;SDS011;26591;43.264;26.940;2023-05-27T04:56:28;10.73;;;4.55;;
40871;SDS011;26591;43.264;26.940;2023-05-27T04:58:57;11.15;;;5.35;;
40871;SDS011;26591;43.264;26.940;2023-05-27T05:01:23;15.85;;;5.90;;
40871;SDS011;26591;43.264;26.940;2023-05-27T05:03:50;11.38;;;6.68;;
40871;SDS011;26591;43.264;26.940;2023-05-27T05:06:38;7.95;;;5.25;;
40871;SDS011;26591;43.264;26.940;2023-05-27T05:09:05;7.15;;;5.85;;
40871;SDS011;26591;43.264;26.940;2023-05-27T05:11:30;10.90;;;6.25;;
40871;SDS011;26591;43.264;26.940;2023-05-27T05:13:56;12.27;;;6.75;;
40871;SDS011;26591;43.264;26.940;2023-05-27T05:16:22;8.45;;;6.25;;
40871;SDS011;26591;43.264;26.940;2023-05-27T05:18:47;11.15;;;6.53;;
40871;SDS011;26591;43.264;26.940;2023-05-27T05:21:13;16.77;;;6.88;;
40871;SDS011;26591;43.264;26.940;2023-05-27T05:23:41;18.60;;;6.95;;
40871;SDS011;26591;43.264;26.940;2023-05-27T05:26:07;10.18;;;6.20;;
40871;SDS011;26591;43.264;26.940;2023-05-27T05:28:33;9.73;;;6.28;;
40871;SDS011;26591;43.264;26.940;2023-05-27T05:30:59;15.10;;;5.90;;
40871;SDS011;26591;43.264;26.940;2023-05-27T05:33:25;10.98;;;5.80;;
40871;SDS011;26591;43.264;26.940;2023-05-27T05:35:51;12.18;;;5.50;;
40871;SDS011;26591;43.264;26.940;2023-05-27T05:38:17;15.63;;;5.97;;
40871;SDS011;26591;43.264;26.940;2023-05-27T05:40:42;15.52;;;6.65;;
40871;SDS011;26591;43.264;26.940;2023-05-27T05:43:13;15.00;;;5.85;;
40871;SDS011;26591;43.264;26.940;2023-05-27T05:45:39;12.95;;;6.85;;
40871;SDS011;26591;43.264;26.940;2023-05-27T05:48:04;17.88;;;6.57;;
40871;SDS011;26591;43.264;26.940;2023-05-27T05:50:30;11.93;;;6.60;;
40871;SDS011;26591;43.264;26.940;2023-05-27T05:52:55;17.35;;;7.05;;
40871;SDS011;26591;43.264;26.940;2023-05-27T05:55:21;11.68;;;6.38;;
40871;SDS011;26591;43.264;26.940;2023-05-27T05:57:47;10.23;;;6.15;;
40871;SDS011;26591;43.264;26.940;2023-05-27T06:00:12;9.95;;;6.05;;
40871;SDS011;26591;43.264;26.940;2023-05-27T06:02:39;12.50;;;7.18;;
40871;SDS011;26591;43.264;26.940;2023-05-27T06:05:05;11.52;;;6.50;;
40871;SDS011;26591;43.264;26.940;2023-05-27T06:07:30;11.15;;;6.55;;
40871;SDS011;26591;43.264;26.940;2023-05-27T06:09:56;11.60;;;6.57;;
40871;SDS011;26591;43.264;26.940;2023-05-27T06:12:23;18.00;;;8.00;;
40871;SDS011;26591;43.264;26.940;2023-05-27T06:14:54;13.73;;;6.00;;
40871;SDS011;26591;43.264;26.940;2023-05-27T06:17:20;16.65;;;6.85;;
40871;SDS011;26591;43.264;26.940;2023-05-27T06:19:45;13.40;;;6.30;;
40871;SDS011;26591;43.264;26.940;2023-05-27T06:22:11;13.60;;;6.88;;
40871;SDS011;26591;43.264;26.940;2023-05-27T06:24:36;13.20;;;7.03;;
40871;SDS011;26591;43.264;26.940;2023-05-27T06:27:02;9.38;;;6.38;;
40871;SDS011;26591;43.264;26.940;2023-05-27T06:29:27;15.52;;;6.38;;
40871;SDS011;26591;43.264;26.940;2023-05-27T06:31:53;10.45;;;6.95;;
40871;SDS011;26591;43.264;26.940;2023-05-27T06:34:19;10.80;;;7.00;;
40871;SDS011;26591;43.264;26.940;2023-05-27T06:36:45;13.02;;;6.60;;
40871;SDS011;26591;43.264;26.940;2023-05-27T06:39:13;13.73;;;6.50;;
40871;SDS011;26591;43.264;26.940;2023-05-27T06:41:39;13.50;;;6.78;;
40871;SDS011;26591;43.264;26.940;2023-05-27T06:44:05;11.55;;;6.40;;
40871;SDS011;26591;43.264;26.940;2023-05-27T06:46:30;8.82;;;6.55;;
40871;SDS011;26591;43.264;26.940;2023-05-27T06:48:56;10.45;;;6.82;;
40871;SDS011;26591;43.264;26.940;2023-05-27T06:51:24;13.23;;;7.20;;
40871;SDS011;26591;43.264;26.940;2023-05-27T06:56:17;11.38;;;7.22;;
40871;SDS011;26591;43.264;26.940;2023-05-27T06:58:42;10.98;;;6.97;;
40871;SDS011;26591;43.264;26.940;2023-05-27T07:01:09;14.75;;;7.70;;
40871;SDS011;26591;43.264;26.940;2023-05-27T07:03:35;13.30;;;7.20;;
40871;SDS011;26591;43.264;26.940;2023-05-27T07:06:00;13.18;;;7.25;;
40871;SDS011;26591;43.264;26.940;2023-05-27T07:08:26;14.77;;;7.32;;
40871;SDS011;26591;43.264;26.940;2023-05-27T07:10:52;10.27;;;7.00;;
40871;SDS011;26591;43.264;26.940;2023-05-27T07:13:17;10.48;;;7.97;;
40871;SDS011;26591;43.264;26.940;2023-05-27T07:15:43;11.32;;;8.00;;
40871;SDS011;26591;43.264;26.940;2023-05-27T07:18:08;12.43;;;8.55;;
40871;SDS011;26591;43.264;26.940;2023-05-27T07:20:34;14.23;;;7.90;;
40871;SDS011;26591;43.264;26.940;2023-05-27T07:23:00;11.43;;;7.57;;
40871;SDS011;26591;43.264;26.940;2023-05-27T07:25:26;17.10;;;8.07;;
40871;SDS011;26591;43.264;26.940;2023-05-27T07:27:51;9.60;;;8.35;;
40871;SDS011;26591;43.264;26.940;2023-05-27T07:30:17;14.10;;;7.25;;
40871;SDS011;26591;43.264;26.940;2023-05-27T07:32:42;11.98;;;7.43;;
40871;SDS011;26591;43.264;26.940;2023-05-27T07:35:08;16.85;;;7.47;;
40871;SDS011;26591;43.264;26.940;2023-05-27T07:37:33;17.42;;;8.50;;
40871;SDS011;26591;43.264;26.940;2023-05-27T07:39:59;24.13;;;8.10;;
40871;SDS011;26591;43.264;26.940;2023-05-27T07:42:24;10.55;;;7.53;;
40871;SDS011;26591;43.264;26.940;2023-05-27T07:44:51;13.30;;;7.43;;
40871;SDS011;26591;43.264;26.940;2023-05-27T07:47:16;19.75;;;7.63;;
40871;SDS011;26591;43.264;26.940;2023-05-27T07:49:42;15.43;;;7.40;;
40871;SDS011;26591;43.264;26.940;2023-05-27T07:52:07;19.63;;;7.55;;
40871;SDS011;26591;43.264;26.940;2023-05-27T07:54:33;17.50;;;7.70;;
40871;SDS011;26591;43.264;26.940;2023-05-27T07:56:58;14.00;;;7.55;;
40871;SDS011;26591;43.264;26.940;2023-05-27T07:59:24;14.65;;;7.65;;
40871;SDS011;26591;43.264;26.940;2023-05-27T08:01:49;14.90;;;7.30;;
40871;SDS011;26591;43.264;26.940;2023-05-27T08:04:15;15.45;;;7.40;;
40871;SDS011;26591;43.264;26.940;2023-05-27T08:06:40;13.52;;;8.15;;
40871;SDS011;26591;43.264;26.940;2023-05-27T08:09:06;20.60;;;7.65;;
40871;SDS011;26591;43.264;26.940;2023-05-27T08:11:32;15.07;;;7.40;;
40871;SDS011;26591;43.264;26.940;2023-05-27T08:13:58;17.35;;;7.65;;
40871;SDS011;26591;43.264;26.940;2023-05-27T08:16:23;23.10;;;7.72;;
40871;SDS011;26591;43.264;26.940;2023-05-27T08:18:49;14.13;;;7.72;;
40871;SDS011;26591;43.264;26.940;2023-05-27T08:21:16;14.75;;;7.43;;
40871;SDS011;26591;43.264;26.940;2023-05-27T08:23:41;14.98;;;7.57;;
40871;SDS011;26591;43.264;26.940;2023-05-27T08:26:07;12.65;;;8.07;;
40871;SDS011;26591;43.264;26.940;2023-05-27T08:28:51;16.52;;;8.20;;
40871;SDS011;26591;43.264;26.940;2023-05-27T08:34:03;14.52;;;7.40;;
40871;SDS011;26591;43.264;26.940;2023-05-27T08:36:29;9.68;;;7.88;;
40871;SDS011;26591;43.264;26.940;2023-05-27T08:38:56;10.60;;;7.47;;
40871;SDS011;26591;43.264;26.940;2023-05-27T08:41:22;15.15;;;8.30;;
40871;SDS011;26591;43.264;26.940;2023-05-27T08:43:48;20.77;;;7.78;;
40871;SDS011;26591;43.264;26.940;2023-05-27T08:46:15;10.63;;;7.45;;
40871;SDS011;26591;43.264;26.940;2023-05-27T08:48:41;15.15;;;7.65;;
40871;SDS011;26591;43.264;26.940;2023-05-27T08:51:08;13.23;;;6.95;;
40871;SDS011;26591;43.264;26.940;2023-05-27T08:53:34;10.23;;;7.25;;
40871;SDS011;26591;43.264;26.940;2023-05-27T08:56:01;14.02;;;7.40;;
40871;SDS011;26591;43.264;26.940;2023-05-27T08:58:27;16.13;;;7.97;;
40871;SDS011;26591;43.264;26.940;2023-05-27T09:00:53;20.02;;;7.70;;
40871;SDS011;26591;43.264;26.940;2023-05-27T09:03:19;10.02;;;7.38;;
40871;SDS011;26591;43.264;26.940;2023-05-27T09:05:47;14.63;;;6.95;;
40871;SDS011;26591;43.264;26.940;2023-05-27T09:08:13;18.70;;;7.07;;
40871;SDS011;26591;43.264;26.940;2023-05-27T09:10:39;14.05;;;7.13;;
40871;SDS011;26591;43.264;26.940;2023-05-27T09:13:07;12.30;;;7.03;;
40871;SDS011;26591;43.264;26.940;2023-05-27T09:15:33;16.70;;;6.80;;
40871;SDS011;26591;43.264;26.940;2023-05-27T09:18:00;12.68;;;7.22;;
40871;SDS011;26591;43.264;26.940;2023-05-27T09:20:28;9.90;;;6.50;;
40871;SDS011;26591;43.264;26.940;2023-05-27T09:22:57;16.73;;;7.88;;
40871;SDS011;26591;43.264;26.940;2023-05-27T09:25:24;12.88;;;7.13;;
40871;SDS011;26591;43.264;26.940;2023-05-27T09:27:50;14.27;;;7.40;;
40871;SDS011;26591;43.264;26.940;2023-05-27T09:30:18;12.27;;;6.65;;
40871;SDS011;26591;43.264;26.940;2023-05-27T09:32:45;15.27;;;6.85;;
40871;SDS011;26591;43.264;26.940;2023-05-27T09:35:11;17.25;;;7.53;;
40871;SDS011;26591;43.264;26.940;2023-05-27T09:37:37;14.43;;;7.20;;
40871;SDS011;26591;43.264;26.940;2023-05-27T09:40:07;20.05;;;6.93;;
40871;SDS011;26591;43.264;26.940;2023-05-27T09:42:47;11.30;;;6.65;;
40871;SDS011;26591;43.264;26.940;2023-05-27T09:45:14;9.40;;;5.90;;
40871;SDS011;26591;43.264;26.940;2023-05-27T09:47:43;19.83;;;6.80;;
40871;SDS011;26591;43.264;26.940;2023-05-27T09:50:13;10.85;;;6.93;;
40871;SDS011;26591;43.264;26.940;2023-05-27T09:52:44;16.00;;;6.15;;
40871;SDS011;26591;43.264;26.940;2023-05-27T09:55:12;10.82;;;6.38;;
40871;SDS011;26591;43.264;26.940;2023-05-27T09:57:38;10.57;;;6.47;;
40871;SDS011;26591;43.264;26.940;2023-05-27T10:00:08;9.68;;;6.07;;
40871;SDS011;26591;43.264;26.940;2023-05-27T10:02:47;14.95;;;6.85;;
40871;SDS011;26591;43.264;26.940;2023-05-27T10:05:14;9.57;;;6.10;;
40871;SDS011;26591;43.264;26.940;2023-05-27T10:07:42;18.10;;;6.28;;
40871;SDS011;26591;43.264;26.940;2023-05-27T10:10:12;9.30;;;5.95;;
40871;SDS011;26591;43.264;26.940;2023-05-27T10:12:46;10.90;;;5.70;;
40871;SDS011;26591;43.264;26.940;2023-05-27T10:15:48;9.38;;;5.80;;
40871;SDS011;26591;43.264;26.940;2023-05-27T10:18:21;9.45;;;6.20;;
40871;SDS011;26591;43.264;26.940;2023-05-27T10:20:48;14.73;;;6.18;;
40871;SDS011;26591;43.264;26.940;2023-05-27T10:23:16;10.98;;;6.07;;
40871;SDS011;26591;43.264;26.940;2023-05-27T10:25:50;6.10;;;5.07;;
40871;SDS011;26591;43.264;26.940;2023-05-27T10:28:27;13.50;;;5.05;;
40871;SDS011;26591;43.264;26.940;2023-05-27T10:33:46;7.35;;;4.78;;
40871;SDS011;26591;43.264;26.940;2023-05-27T10:36:15;9.95;;;5.38;;
40871;SDS011;26591;43.264;26.940;2023-05-27T10:38:43;7.95;;;4.97;;
40871;SDS011;26591;43.264;26.940;2023-05-27T10:41:19;8.82;;;5.07;;
40871;SDS011;26591;43.264;26.940;2023-05-27T10:43:53;16.55;;;5.75;;
40871;SDS011;26591;43.264;26.940;2023-05-27T10:46:20;8.55;;;5.30;;
40871;SDS011;26591;43.264;26.940;2023-05-27T10:48:45;8.75;;;5.32;;
40871;SDS011;26591;43.264;26.940;2023-05-27T10:51:11;17.90;;;6.38;;
40871;SDS011;26591;43.264;26.940;2023-05-27T10:53:49;14.20;;;5.88;;
40871;SDS011;26591;43.264;26.940;2023-05-27T10:56:15;13.90;;;4.97;;
40871;SDS011;26591;43.264;26.940;2023-05-27T10:58:40;8.35;;;4.63;;
40871;SDS011;26591;43.264;26.940;2023-05-27T11:01:14;9.95;;;4.85;;
40871;SDS011;26591;43.264;26.940;2023-05-27T11:03:41;8.20;;;5.10;;
40871;SDS011;26591;43.264;26.940;2023-05-27T11:06:09;7.72;;;4.88;;
40871;SDS011;26591;43.264;26.940;2023-05-27T11:08:36;7.63;;;5.35;;
40871;SDS011;26591;43.264;26.940;2023-05-27T11:11:06;8.13;;;4.47;;
40871;SDS011;26591;43.264;26.940;2023-05-27T11:13:43;8.55;;;5.13;;
40871;SDS011;26591;43.264;26.940;2023-05-27T11:16:10;9.48;;;4.97;;
40871;SDS011;26591;43.264;26.940;2023-05-27T11:18:37;14.27;;;5.07;;
40871;SDS011;26591;43.264;26.940;2023-05-27T11:21:11;9.68;;;4.80;;
40871;SDS011;26591;43.264;26.940;2023-05-27T11:23:42;9.07;;;4.47;;
40871;SDS011;26591;43.264;26.940;2023-05-27T11:28:48;6.15;;;3.78;;
40871;SDS011;26591;43.264;26.940;2023-05-27T11:31:16;4.75;;;3.83;;
40871;SDS011;26591;43.264;26.940;2023-05-27T11:33:42;7.97;;;3.75;;
40871;SDS011;26591;43.264;26.940;2023-05-27T11:36:13;13.85;;;5.80;;
40871;SDS011;26591;43.264;26.940;2023-05-27T11:38:56;7.18;;;3.80;;
40871;SDS011;26591;43.264;26.940;2023-05-27T11:41:24;7.60;;;3.60;;
40871;SDS011;26591;43.264;26.940;2023-05-27T11:43:55;6.55;;;3.50;;
40871;SDS011;26591;43.264;26.940;2023-05-27T11:46:22;5.45;;;3.72;;
40871;SDS011;26591;43.264;26.940;2023-05-27T11:48:49;9.27;;;3.53;;
40871;SDS011;26591;43.264;26.940;2023-05-27T11:51:15;4.70;;;3.20;;
40871;SDS011;26591;43.264;26.940;2023-05-27T11:53:41;6.57;;;4.20;;
40871;SDS011;26591;43.264;26.940;2023-05-27T11:56:10;5.18;;;3.47;;
40871;SDS011;26591;43.264;26.940;2023-05-27T11:58:35;4.20;;;3.50;;
40871;SDS011;26591;43.264;26.940;2023-05-27T12:01:02;9.15;;;3.75;;
40871;SDS011;26591;43.264;26.940;2023-05-27T12:03:29;4.85;;;3.60;;
40871;SDS011;26591;43.264;26.940;2023-05-27T12:05:55;4.80;;;3.55;;
40871;SDS011;26591;43.264;26.940;2023-05-27T12:08:21;6.15;;;4.05;;
40871;SDS011;26591;43.264;26.940;2023-05-27T12:10:46;5.75;;;3.38;;
40871;SDS011;26591;43.264;26.940;2023-05-27T12:13:15;14.02;;;3.90;;
40871;SDS011;26591;43.264;26.940;2023-05-27T12:15:41;5.65;;;3.78;;
40871;SDS011;26591;43.264;26.940;2023-05-27T12:18:06;7.63;;;3.88;;
40871;SDS011;26591;43.264;26.940;2023-05-27T12:20:32;10.55;;;4.43;;
40871;SDS011;26591;43.264;26.940;2023-05-27T12:22:58;6.68;;;3.40;;
40871;SDS011;26591;43.264;26.940;2023-05-27T12:25:23;6.07;;;3.10;;
40871;SDS011;26591;43.264;26.940;2023-05-27T12:27:49;9.02;;;3.72;;
40871;SDS011;26591;43.264;26.940;2023-05-27T12:30:14;8.10;;;3.25;;
40871;SDS011;26591;43.264;26.940;2023-05-27T12:32:40;6.13;;;2.88;;
40871;SDS011;26591;43.264;26.940;2023-05-27T12:35:07;4.20;;;3.78;;
40871;SDS011;26591;43.264;26.940;2023-05-27T12:37:32;8.93;;;3.85;;
40871;SDS011;26591;43.264;26.940;2023-05-27T12:39:58;6.10;;;3.60;;
40871;SDS011;26591;43.264;26.940;2023-05-27T12:42:23;6.95;;;3.78;;
40871;SDS011;26591;43.264;26.940;2023-05-27T12:44:49;8.55;;;3.60;;
40871;SDS011;26591;43.264;26.940;2023-05-27T12:47:14;9.18;;;4.05;;
40871;SDS011;26591;43.264;26.940;2023-05-27T12:49:40;5.15;;;3.80;;
40871;SDS011;26591;43.264;26.940;2023-05-27T12:52:07;9.90;;;4.40;;
40871;SDS011;26591;43.264;26.940;2023-05-27T12:54:32;10.68;;;4.38;;
40871;SDS011;26591;43.264;26.940;2023-05-27T12:56:58;9.95;;;4.40;;
40871;SDS011;26591;43.264;26.940;2023-05-27T12:59:23;11.20;;;4.05;;
40871;SDS011;26591;43.264;26.940;2023-05-27T13:01:49;5.20;;;4.38;;
40871;SDS011;26591;43.264;26.940;2023-05-27T13:04:14;5.13;;;3.53;;
40871;SDS011;26591;43.264;26.940;2023-05-27T13:06:40;3.90;;;3.28;;
40871;SDS011;26591;43.264;26.940;2023-05-27T13:09:05;8.25;;;3.40;;
40871;SDS011;26591;43.264;26.940;2023-05-27T13:11:33;5.80;;;3.10;;
40871;SDS011;26591;43.264;26.940;2023-05-27T13:13:58;8.35;;;3.38;;
40871;SDS011;26591;43.264;26.940;2023-05-27T13:16:24;5.93;;;2.88;;
40871;SDS011;26591;43.264;26.940;2023-05-27T13:18:49;7.57;;;2.40;;
40871;SDS011;26591;43.264;26.940;2023-05-27T13:21:15;3.55;;;2.33;;
40871;SDS011;26591;43.264;26.940;2023-05-27T13:23:40;9.40;;;2.17;;
40871;SDS011;26591;43.264;26.940;2023-05-27T13:26:06;4.57;;;2.50;;
40871;SDS011;26591;43.264;26.940;2023-05-27T13:28:31;4.22;;;2.17;;
40871;SDS011;26591;43.264;26.940;2023-05-27T13:30:57;6.50;;;2.22;;
40871;SDS011;26591;43.264;26.940;2023-05-27T13:33:23;4.25;;;2.28;;
40871;SDS011;26591;43.264;26.940;2023-05-27T13:35:51;7.10;;;3.40;;
40871;SDS011;26591;43.264;26.940;2023-05-27T13:38:17;5.57;;;2.85;;
40871;SDS011;26591;43.264;26.940;2023-05-27T13:40:45;8.82;;;3.35;;
40871;SDS011;26591;43.264;26.940;2023-05-27T13:43:11;4.68;;;3.15;;
40871;SDS011;26591;43.264;26.940;2023-05-27T13:45:36;5.50;;;3.00;;
40871;SDS011;26591;43.264;26.940;2023-05-27T13:48:02;9.35;;;4.03;;
40871;SDS011;26591;43.264;26.940;2023-05-27T13:50:27;8.68;;;3.45;;
40871;SDS011;26591;43.264;26.940;2023-05-27T13:52:54;8.35;;;3.88;;
40871;SDS011;26591;43.264;26.940;2023-05-27T13:55:19;8.70;;;3.92;;
40871;SDS011;26591;43.264;26.940;2023-05-27T13:57:45;6.70;;;2.67;;
40871;SDS011;26591;43.264;26.940;2023-05-27T14:00:11;5.75;;;3.10;;
40871;SDS011;26591;43.264;26.940;2023-05-27T14:02:37;6.55;;;3.90;;
40871;SDS011;26591;43.264;26.940;2023-05-27T14:05:02;6.68;;;3.17;;
40871;SDS011;26591;43.264;26.940;2023-05-27T14:07:28;16.98;;;5.43;;
40871;SDS011;26591;43.264;26.940;2023-05-27T14:09:54;6.18;;;3.95;;
40871;SDS011;26591;43.264;26.940;2023-05-27T14:12:21;7.97;;;4.68;;
40871;SDS011;26591;43.264;26.940;2023-05-27T14:14:47;5.55;;;2.67;;
40871;SDS011;26591;43.264;26.940;2023-05-27T14:17:12;6.28;;;3.38;;
40871;SDS011;26591;43.264;26.940;2023-05-27T14:19:38;6.20;;;3.22;;
40871;SDS011;26591;43.264;26.940;2023-05-27T14:22:03;8.40;;;3.83;;
40871;SDS011;26591;43.264;26.940;2023-05-27T14:24:29;5.40;;;2.53;;
40871;SDS011;26591;43.264;26.940;2023-05-27T14:26:56;6.32;;;3.90;;
40871;SDS011;26591;43.264;26.940;2023-05-27T14:29:23;6.82;;;3.90;;
40871;SDS011;26591;43.264;26.940;2023-05-27T14:31:48;7.13;;;4.20;;
40871;SDS011;26591;43.264;26.940;2023-05-27T14:34:14;6.05;;;3.28;;
40871;SDS011;26591;43.264;26.940;2023-05-27T14:36:39;5.50;;;3.20;;